sensor_id;sensor_type;location;lat;lon;timestamp;P1;durP1;ratioP1;P2;durP2;ratioP2
5460;SDS011;2753;49.196;8.286;2024-03-22T00:00:21;10.70;;;6.57;;
5460;SDS011;2753;49.196;8.286;2024-03-22T00:02:47;13.83;;;6.37;;
5460;SDS011;2753;49.196;8.286;2024-03-22T00:05:13;10.40;;;6.87;;
5460;SDS011;2753;49.196;8.286;2024-03-22T00:07:38;13.70;;;6.17;;
5460;SDS011;2753;49.196;8.286;2024-03-22T00:10:05;11.13;;;7.43;;
5460;SDS011;2753;49.196;8.286;2024-03-22T00:12:31;19.37;;;8.00;;
5460;SDS011;2753;49.196;8.286;2024-03-22T00:14:57;13.77;;;8.43;;
5460;SDS011;2753;49.196;8.286;2024-03-22T00:17:23;10.17;;;7.97;;
5460;SDS011;2753;49.196;8.286;2024-03-22T00:19:48;13.97;;;8.00;;
5460;SDS011;2753;49.196;8.286;2024-03-22T00:22:14;10.67;;;7.40;;
5460;SDS011;2753;49.196;8.286;2024-03-22T00:24:40;11.30;;;8.40;;
5460;SDS011;2753;49.196;8.286;2024-03-22T00:27:06;12.60;;;8.77;;
5460;SDS011;2753;49.196;8.286;2024-03-22T00:29:32;18.33;;;9.00;;
5460;SDS011;2753;49.196;8.286;2024-03-22T00:31:58;12.70;;;8.63;;
5460;SDS011;2753;49.196;8.286;2024-03-22T00:34:23;14.67;;;9.60;;
5460;SDS011;2753;49.196;8.286;2024-03-22T00:36:49;10.43;;;8.30;;
5460;SDS011;2753;49.196;8.286;2024-03-22T00:39:16;14.43;;;7.90;;
5460;SDS011;2753;49.196;8.286;2024-03-22T00:41:41;18.17;;;9.60;;
5460;SDS011;2753;49.196;8.286;2024-03-22T00:44:07;12.60;;;9.00;;
5460;SDS011;2753;49.196;8.286;2024-03-22T00:46:33;13.23;;;9.43;;
5460;SDS011;2753;49.196;8.286;2024-03-22T00:48:59;22.67;;;7.93;;
5460;SDS011;2753;49.196;8.286;2024-03-22T00:51:28;12.30;;;8.57;;
5460;SDS011;2753;49.196;8.286;2024-03-22T00:53:53;11.83;;;8.70;;
5460;SDS011;2753;49.196;8.286;2024-03-22T00:56:19;18.70;;;9.50;;
5460;SDS011;2753;49.196;8.286;2024-03-22T00:58:45;13.57;;;8.33;;
5460;SDS011;2753;49.196;8.286;2024-03-22T01:01:10;16.70;;;8.33;;
5460;SDS011;2753;49.196;8.286;2024-03-22T01:03:36;10.80;;;8.20;;
5460;SDS011;2753;49.196;8.286;2024-03-22T01:06:02;15.23;;;8.10;;
5460;SDS011;2753;49.196;8.286;2024-03-22T01:08:27;10.33;;;8.33;;
5460;SDS011;2753;49.196;8.286;2024-03-22T01:10:53;13.57;;;8.60;;
5460;SDS011;2753;49.196;8.286;2024-03-22T01:13:19;10.97;;;8.07;;
5460;SDS011;2753;49.196;8.286;2024-03-22T01:15:44;9.90;;;8.00;;
5460;SDS011;2753;49.196;8.286;2024-03-22T01:18:11;14.00;;;8.80;;
5460;SDS011;2753;49.196;8.286;2024-03-22T01:20:37;16.43;;;8.43;;
5460;SDS011;2753;49.196;8.286;2024-03-22T01:23:03;16.10;;;8.20;;
5460;SDS011;2753;49.196;8.286;2024-03-22T01:25:29;13.20;;;7.80;;
5460;SDS011;2753;49.196;8.286;2024-03-22T01:27:55;14.97;;;9.03;;
5460;SDS011;2753;49.196;8.286;2024-03-22T01:30:21;16.60;;;9.03;;
5460;SDS011;2753;49.196;8.286;2024-03-22T01:32:47;11.43;;;8.13;;
5460;SDS011;2753;49.196;8.286;2024-03-22T01:35:13;14.27;;;7.40;;
5460;SDS011;2753;49.196;8.286;2024-03-22T01:37:39;10.07;;;6.90;;
5460;SDS011;2753;49.196;8.286;2024-03-22T01:40:05;12.40;;;7.70;;
5460;SDS011;2753;49.196;8.286;2024-03-22T01:42:31;11.00;;;8.80;;
5460;SDS011;2753;49.196;8.286;2024-03-22T01:44:57;15.40;;;8.80;;
5460;SDS011;2753;49.196;8.286;2024-03-22T01:47:22;15.20;;;9.50;;
5460;SDS011;2753;49.196;8.286;2024-03-22T01:49:49;14.63;;;8.20;;
5460;SDS011;2753;49.196;8.286;2024-03-22T01:52:17;13.30;;;8.67;;
5460;SDS011;2753;49.196;8.286;2024-03-22T01:54:42;10.43;;;8.20;;
5460;SDS011;2753;49.196;8.286;2024-03-22T01:57:08;17.90;;;10.07;;
5460;SDS011;2753;49.196;8.286;2024-03-22T01:59:35;15.63;;;8.70;;
5460;SDS011;2753;49.196;8.286;2024-03-22T02:02:00;11.33;;;7.47;;
5460;SDS011;2753;49.196;8.286;2024-03-22T02:04:27;12.60;;;7.60;;
5460;SDS011;2753;49.196;8.286;2024-03-22T02:06:53;14.10;;;9.00;;
5460;SDS011;2753;49.196;8.286;2024-03-22T02:09:18;14.60;;;9.37;;
5460;SDS011;2753;49.196;8.286;2024-03-22T02:11:46;11.57;;;7.77;;
5460;SDS011;2753;49.196;8.286;2024-03-22T02:14:12;13.10;;;8.83;;
5460;SDS011;2753;49.196;8.286;2024-03-22T02:16:39;17.50;;;8.20;;
5460;SDS011;2753;49.196;8.286;2024-03-22T02:19:05;13.60;;;8.77;;
5460;SDS011;2753;49.196;8.286;2024-03-22T02:21:31;12.70;;;8.63;;
5460;SDS011;2753;49.196;8.286;2024-03-22T02:23:57;13.43;;;7.70;;
5460;SDS011;2753;49.196;8.286;2024-03-22T02:26:23;11.27;;;7.33;;
5460;SDS011;2753;49.196;8.286;2024-03-22T02:28:48;10.50;;;7.50;;
5460;SDS011;2753;49.196;8.286;2024-03-22T02:31:14;11.10;;;8.23;;
5460;SDS011;2753;49.196;8.286;2024-03-22T02:33:40;11.80;;;7.60;;
5460;SDS011;2753;49.196;8.286;2024-03-22T02:36:05;10.47;;;7.00;;
5460;SDS011;2753;49.196;8.286;2024-03-22T02:38:31;11.90;;;6.63;;
5460;SDS011;2753;49.196;8.286;2024-03-22T02:40:57;18.07;;;7.93;;
5460;SDS011;2753;49.196;8.286;2024-03-22T02:43:23;12.83;;;6.83;;
5460;SDS011;2753;49.196;8.286;2024-03-22T02:45:49;12.63;;;6.90;;
5460;SDS011;2753;49.196;8.286;2024-03-22T02:48:15;6.83;;;6.13;;
5460;SDS011;2753;49.196;8.286;2024-03-22T02:50:41;8.10;;;6.60;;
5460;SDS011;2753;49.196;8.286;2024-03-22T02:53:06;8.67;;;6.70;;
5460;SDS011;2753;49.196;8.286;2024-03-22T02:55:41;13.13;;;7.13;;
5460;SDS011;2753;49.196;8.286;2024-03-22T02:58:07;9.27;;;6.70;;
5460;SDS011;2753;49.196;8.286;2024-03-22T03:00:37;10.13;;;7.53;;
5460;SDS011;2753;49.196;8.286;2024-03-22T03:03:04;19.63;;;10.40;;
5460;SDS011;2753;49.196;8.286;2024-03-22T03:05:30;17.00;;;10.67;;
5460;SDS011;2753;49.196;8.286;2024-03-22T03:07:56;15.53;;;10.50;;
5460;SDS011;2753;49.196;8.286;2024-03-22T03:10:22;16.60;;;9.30;;
5460;SDS011;2753;49.196;8.286;2024-03-22T03:12:47;12.50;;;7.60;;
5460;SDS011;2753;49.196;8.286;2024-03-22T03:15:13;7.33;;;5.80;;
5460;SDS011;2753;49.196;8.286;2024-03-22T03:17:39;12.67;;;5.97;;
5460;SDS011;2753;49.196;8.286;2024-03-22T03:20:05;9.10;;;6.10;;
5460;SDS011;2753;49.196;8.286;2024-03-22T03:22:35;9.10;;;5.73;;
5460;SDS011;2753;49.196;8.286;2024-03-22T03:25:03;7.13;;;5.63;;
5460;SDS011;2753;49.196;8.286;2024-03-22T03:27:29;6.87;;;5.67;;
5460;SDS011;2753;49.196;8.286;2024-03-22T03:29:55;7.10;;;5.57;;
5460;SDS011;2753;49.196;8.286;2024-03-22T03:32:20;15.27;;;6.60;;
5460;SDS011;2753;49.196;8.286;2024-03-22T03:34:46;9.80;;;7.37;;
5460;SDS011;2753;49.196;8.286;2024-03-22T03:37:12;11.20;;;7.20;;
5460;SDS011;2753;49.196;8.286;2024-03-22T03:39:37;14.33;;;8.70;;
5460;SDS011;2753;49.196;8.286;2024-03-22T03:42:03;9.30;;;7.10;;
5460;SDS011;2753;49.196;8.286;2024-03-22T03:44:29;12.70;;;8.17;;
5460;SDS011;2753;49.196;8.286;2024-03-22T03:46:54;15.63;;;8.47;;
5460;SDS011;2753;49.196;8.286;2024-03-22T03:49:20;12.40;;;7.57;;
5460;SDS011;2753;49.196;8.286;2024-03-22T03:51:46;10.20;;;8.27;;
5460;SDS011;2753;49.196;8.286;2024-03-22T03:54:11;17.77;;;8.83;;
5460;SDS011;2753;49.196;8.286;2024-03-22T03:56:37;13.33;;;9.00;;
5460;SDS011;2753;49.196;8.286;2024-03-22T03:59:03;16.60;;;10.77;;
5460;SDS011;2753;49.196;8.286;2024-03-22T04:01:28;14.57;;;9.27;;
5460;SDS011;2753;49.196;8.286;2024-03-22T04:03:54;17.87;;;10.40;;
5460;SDS011;2753;49.196;8.286;2024-03-22T04:06:19;14.30;;;10.23;;
5460;SDS011;2753;49.196;8.286;2024-03-22T04:08:45;14.07;;;9.27;;
5460;SDS011;2753;49.196;8.286;2024-03-22T04:11:11;15.33;;;8.57;;
5460;SDS011;2753;49.196;8.286;2024-03-22T04:13:37;21.50;;;11.10;;
5460;SDS011;2753;49.196;8.286;2024-03-22T04:16:02;23.03;;;12.13;;
5460;SDS011;2753;49.196;8.286;2024-03-22T04:18:28;17.47;;;11.77;;
5460;SDS011;2753;49.196;8.286;2024-03-22T04:20:54;19.40;;;11.90;;
5460;SDS011;2753;49.196;8.286;2024-03-22T04:23:21;22.53;;;11.50;;
5460;SDS011;2753;49.196;8.286;2024-03-22T04:25:54;24.67;;;11.00;;
5460;SDS011;2753;49.196;8.286;2024-03-22T04:28:21;18.63;;;10.53;;
5460;SDS011;2753;49.196;8.286;2024-03-22T04:30:57;16.07;;;10.00;;
5460;SDS011;2753;49.196;8.286;2024-03-22T04:33:31;13.40;;;8.83;;
5460;SDS011;2753;49.196;8.286;2024-03-22T04:35:57;11.80;;;9.10;;
5460;SDS011;2753;49.196;8.286;2024-03-22T04:38:24;19.43;;;9.30;;
5460;SDS011;2753;49.196;8.286;2024-03-22T04:40:53;19.77;;;9.87;;
5460;SDS011;2753;49.196;8.286;2024-03-22T04:43:19;16.33;;;8.70;;
5460;SDS011;2753;49.196;8.286;2024-03-22T04:45:45;19.17;;;9.37;;
5460;SDS011;2753;49.196;8.286;2024-03-22T04:48:12;11.37;;;8.90;;
5460;SDS011;2753;49.196;8.286;2024-03-22T04:50:39;13.50;;;9.07;;
5460;SDS011;2753;49.196;8.286;2024-03-22T04:53:05;14.90;;;10.27;;
5460;SDS011;2753;49.196;8.286;2024-03-22T04:55:33;17.60;;;8.80;;
5460;SDS011;2753;49.196;8.286;2024-03-22T04:57:59;12.20;;;8.27;;
5460;SDS011;2753;49.196;8.286;2024-03-22T05:00:25;12.47;;;7.93;;
5460;SDS011;2753;49.196;8.286;2024-03-22T05:02:52;11.73;;;8.00;;
5460;SDS011;2753;49.196;8.286;2024-03-22T05:05:17;12.10;;;7.77;;
5460;SDS011;2753;49.196;8.286;2024-03-22T05:07:43;12.27;;;8.70;;
5460;SDS011;2753;49.196;8.286;2024-03-22T05:10:09;14.93;;;7.80;;
5460;SDS011;2753;49.196;8.286;2024-03-22T05:12:36;10.90;;;7.30;;
5460;SDS011;2753;49.196;8.286;2024-03-22T05:15:02;11.50;;;6.70;;
5460;SDS011;2753;49.196;8.286;2024-03-22T05:17:28;9.20;;;6.80;;
5460;SDS011;2753;49.196;8.286;2024-03-22T05:19:56;8.50;;;6.60;;
5460;SDS011;2753;49.196;8.286;2024-03-22T05:22:22;14.13;;;6.57;;
5460;SDS011;2753;49.196;8.286;2024-03-22T05:24:48;14.70;;;7.13;;
5460;SDS011;2753;49.196;8.286;2024-03-22T05:27:14;12.70;;;7.50;;
5460;SDS011;2753;49.196;8.286;2024-03-22T05:29:40;13.33;;;7.83;;
5460;SDS011;2753;49.196;8.286;2024-03-22T05:32:05;14.20;;;7.80;;
5460;SDS011;2753;49.196;8.286;2024-03-22T05:34:31;9.47;;;8.30;;
5460;SDS011;2753;49.196;8.286;2024-03-22T05:36:57;13.10;;;8.07;;
5460;SDS011;2753;49.196;8.286;2024-03-22T05:39:24;11.40;;;7.80;;
5460;SDS011;2753;49.196;8.286;2024-03-22T05:41:49;11.73;;;8.33;;
5460;SDS011;2753;49.196;8.286;2024-03-22T05:44:15;14.23;;;8.80;;
5460;SDS011;2753;49.196;8.286;2024-03-22T05:46:41;17.53;;;8.60;;
5460;SDS011;2753;49.196;8.286;2024-03-22T05:49:06;17.13;;;8.10;;
5460;SDS011;2753;49.196;8.286;2024-03-22T05:51:32;13.00;;;7.50;;
5460;SDS011;2753;49.196;8.286;2024-03-22T05:53:58;12.80;;;8.37;;
5460;SDS011;2753;49.196;8.286;2024-03-22T05:56:24;18.70;;;8.70;;
5460;SDS011;2753;49.196;8.286;2024-03-22T05:58:50;17.07;;;9.37;;
5460;SDS011;2753;49.196;8.286;2024-03-22T06:01:15;23.33;;;10.73;;
5460;SDS011;2753;49.196;8.286;2024-03-22T06:03:41;18.40;;;10.63;;
5460;SDS011;2753;49.196;8.286;2024-03-22T06:06:07;17.40;;;10.63;;
5460;SDS011;2753;49.196;8.286;2024-03-22T06:08:32;23.73;;;12.30;;
5460;SDS011;2753;49.196;8.286;2024-03-22T06:11:00;21.73;;;11.23;;
5460;SDS011;2753;49.196;8.286;2024-03-22T06:13:26;29.40;;;9.60;;
5460;SDS011;2753;49.196;8.286;2024-03-22T06:15:51;21.90;;;10.20;;
5460;SDS011;2753;49.196;8.286;2024-03-22T06:18:17;18.47;;;10.93;;
5460;SDS011;2753;49.196;8.286;2024-03-22T06:20:43;16.47;;;9.10;;
5460;SDS011;2753;49.196;8.286;2024-03-22T06:23:09;26.10;;;10.43;;
5460;SDS011;2753;49.196;8.286;2024-03-22T06:25:35;17.70;;;8.30;;
5460;SDS011;2753;49.196;8.286;2024-03-22T06:28:01;16.53;;;8.93;;
5460;SDS011;2753;49.196;8.286;2024-03-22T06:30:26;14.93;;;9.70;;
5460;SDS011;2753;49.196;8.286;2024-03-22T06:32:52;14.67;;;9.50;;
5460;SDS011;2753;49.196;8.286;2024-03-22T06:35:18;15.37;;;10.13;;
5460;SDS011;2753;49.196;8.286;2024-03-22T06:37:44;21.90;;;9.57;;
5460;SDS011;2753;49.196;8.286;2024-03-22T06:40:10;17.30;;;10.97;;
5460;SDS011;2753;49.196;8.286;2024-03-22T06:42:36;23.23;;;10.00;;
5460;SDS011;2753;49.196;8.286;2024-03-22T06:45:02;21.07;;;10.63;;
5460;SDS011;2753;49.196;8.286;2024-03-22T06:47:28;17.53;;;11.27;;
5460;SDS011;2753;49.196;8.286;2024-03-22T06:49:54;18.83;;;9.93;;
5460;SDS011;2753;49.196;8.286;2024-03-22T06:52:19;42.57;;;10.83;;
5460;SDS011;2753;49.196;8.286;2024-03-22T06:54:45;19.13;;;10.27;;
5460;SDS011;2753;49.196;8.286;2024-03-22T06:57:11;27.03;;;11.80;;
5460;SDS011;2753;49.196;8.286;2024-03-22T06:59:37;20.57;;;11.30;;
5460;SDS011;2753;49.196;8.286;2024-03-22T07:02:03;22.67;;;11.27;;
5460;SDS011;2753;49.196;8.286;2024-03-22T07:04:29;19.43;;;11.13;;
5460;SDS011;2753;49.196;8.286;2024-03-22T07:06:54;17.13;;;10.50;;
5460;SDS011;2753;49.196;8.286;2024-03-22T07:09:20;13.30;;;8.47;;
5460;SDS011;2753;49.196;8.286;2024-03-22T07:11:46;15.27;;;8.73;;
5460;SDS011;2753;49.196;8.286;2024-03-22T07:14:12;13.20;;;8.40;;
5460;SDS011;2753;49.196;8.286;2024-03-22T07:16:37;14.40;;;8.33;;
5460;SDS011;2753;49.196;8.286;2024-03-22T07:19:04;9.17;;;7.60;;
5460;SDS011;2753;49.196;8.286;2024-03-22T07:21:30;9.40;;;8.40;;
5460;SDS011;2753;49.196;8.286;2024-03-22T07:23:56;13.13;;;7.50;;
5460;SDS011;2753;49.196;8.286;2024-03-22T07:26:22;8.60;;;7.13;;
5460;SDS011;2753;49.196;8.286;2024-03-22T07:28:48;11.97;;;7.40;;
5460;SDS011;2753;49.196;8.286;2024-03-22T07:31:13;12.37;;;7.37;;
5460;SDS011;2753;49.196;8.286;2024-03-22T07:33:39;13.10;;;8.13;;
5460;SDS011;2753;49.196;8.286;2024-03-22T07:36:05;8.60;;;7.00;;
5460;SDS011;2753;49.196;8.286;2024-03-22T07:38:31;17.83;;;7.97;;
5460;SDS011;2753;49.196;8.286;2024-03-22T07:40:57;12.37;;;7.87;;
5460;SDS011;2753;49.196;8.286;2024-03-22T07:43:23;10.90;;;7.17;;
5460;SDS011;2753;49.196;8.286;2024-03-22T07:45:48;8.83;;;6.57;;
5460;SDS011;2753;49.196;8.286;2024-03-22T07:48:14;8.33;;;6.50;;
5460;SDS011;2753;49.196;8.286;2024-03-22T07:50:40;7.37;;;6.43;;
5460;SDS011;2753;49.196;8.286;2024-03-22T07:53:06;10.13;;;7.10;;
5460;SDS011;2753;49.196;8.286;2024-03-22T07:55:32;10.30;;;6.87;;
5460;SDS011;2753;49.196;8.286;2024-03-22T07:57:58;9.37;;;6.30;;
5460;SDS011;2753;49.196;8.286;2024-03-22T08:00:24;11.83;;;7.00;;
5460;SDS011;2753;49.196;8.286;2024-03-22T08:02:52;6.53;;;5.93;;
5460;SDS011;2753;49.196;8.286;2024-03-22T08:05:18;23.33;;;6.63;;
5460;SDS011;2753;49.196;8.286;2024-03-22T08:07:44;12.33;;;6.80;;
5460;SDS011;2753;49.196;8.286;2024-03-22T08:10:10;18.00;;;6.00;;
5460;SDS011;2753;49.196;8.286;2024-03-22T08:12:35;8.30;;;5.37;;
5460;SDS011;2753;49.196;8.286;2024-03-22T08:15:01;13.63;;;6.60;;
5460;SDS011;2753;49.196;8.286;2024-03-22T08:17:27;17.93;;;6.83;;
5460;SDS011;2753;49.196;8.286;2024-03-22T08:19:53;12.20;;;6.93;;
5460;SDS011;2753;49.196;8.286;2024-03-22T08:22:19;18.80;;;7.07;;
5460;SDS011;2753;49.196;8.286;2024-03-22T08:24:44;16.17;;;7.30;;
5460;SDS011;2753;49.196;8.286;2024-03-22T08:27:10;11.17;;;6.57;;
5460;SDS011;2753;49.196;8.286;2024-03-22T08:29:37;7.50;;;6.10;;
5460;SDS011;2753;49.196;8.286;2024-03-22T08:32:03;10.57;;;6.00;;
5460;SDS011;2753;49.196;8.286;2024-03-22T08:34:30;8.27;;;5.80;;
5460;SDS011;2753;49.196;8.286;2024-03-22T08:37:00;9.07;;;6.67;;
5460;SDS011;2753;49.196;8.286;2024-03-22T08:39:26;7.63;;;6.93;;
5460;SDS011;2753;49.196;8.286;2024-03-22T08:41:51;7.23;;;5.97;;
5460;SDS011;2753;49.196;8.286;2024-03-22T08:44:17;10.27;;;7.07;;
5460;SDS011;2753;49.196;8.286;2024-03-22T08:46:43;8.60;;;6.27;;
5460;SDS011;2753;49.196;8.286;2024-03-22T08:49:09;6.47;;;5.70;;
5460;SDS011;2753;49.196;8.286;2024-03-22T08:51:34;10.80;;;6.30;;
5460;SDS011;2753;49.196;8.286;2024-03-22T08:54:01;16.03;;;6.23;;
5460;SDS011;2753;49.196;8.286;2024-03-22T08:56:26;13.97;;;6.17;;
5460;SDS011;2753;49.196;8.286;2024-03-22T08:58:52;10.20;;;5.77;;
5460;SDS011;2753;49.196;8.286;2024-03-22T09:01:18;9.60;;;5.10;;
5460;SDS011;2753;49.196;8.286;2024-03-22T09:03:43;14.97;;;5.80;;
5460;SDS011;2753;49.196;8.286;2024-03-22T09:06:15;8.50;;;5.67;;
5460;SDS011;2753;49.196;8.286;2024-03-22T09:08:40;8.10;;;5.50;;
5460;SDS011;2753;49.196;8.286;2024-03-22T09:11:06;11.53;;;5.23;;
5460;SDS011;2753;49.196;8.286;2024-03-22T09:13:32;7.23;;;6.03;;
5460;SDS011;2753;49.196;8.286;2024-03-22T09:16:03;9.93;;;5.40;;
5460;SDS011;2753;49.196;8.286;2024-03-22T09:18:29;10.00;;;5.53;;
5460;SDS011;2753;49.196;8.286;2024-03-22T09:20:54;8.30;;;5.90;;
5460;SDS011;2753;49.196;8.286;2024-03-22T09:23:21;14.37;;;7.00;;
5460;SDS011;2753;49.196;8.286;2024-03-22T09:25:47;10.20;;;5.67;;
5460;SDS011;2753;49.196;8.286;2024-03-22T09:28:13;9.13;;;6.60;;
5460;SDS011;2753;49.196;8.286;2024-03-22T09:30:39;18.73;;;6.10;;
5460;SDS011;2753;49.196;8.286;2024-03-22T09:33:05;11.67;;;5.70;;
5460;SDS011;2753;49.196;8.286;2024-03-22T09:35:33;17.60;;;5.97;;
5460;SDS011;2753;49.196;8.286;2024-03-22T09:37:59;8.77;;;6.37;;
5460;SDS011;2753;49.196;8.286;2024-03-22T09:40:25;7.33;;;5.97;;
5460;SDS011;2753;49.196;8.286;2024-03-22T09:42:50;9.90;;;5.60;;
5460;SDS011;2753;49.196;8.286;2024-03-22T09:45:24;12.87;;;5.33;;
5460;SDS011;2753;49.196;8.286;2024-03-22T09:47:51;13.43;;;7.03;;
5460;SDS011;2753;49.196;8.286;2024-03-22T09:50:20;9.00;;;5.70;;
5460;SDS011;2753;49.196;8.286;2024-03-22T09:52:46;7.27;;;5.70;;
5460;SDS011;2753;49.196;8.286;2024-03-22T09:55:13;12.10;;;5.60;;
5460;SDS011;2753;49.196;8.286;2024-03-22T09:57:39;12.20;;;6.30;;
5460;SDS011;2753;49.196;8.286;2024-03-22T10:00:08;9.53;;;7.20;;
5460;SDS011;2753;49.196;8.286;2024-03-22T10:02:34;9.53;;;5.70;;
5460;SDS011;2753;49.196;8.286;2024-03-22T10:05:01;13.80;;;7.50;;
5460;SDS011;2753;49.196;8.286;2024-03-22T10:07:29;9.63;;;7.30;;
5460;SDS011;2753;49.196;8.286;2024-03-22T10:09:59;16.60;;;8.47;;
5460;SDS011;2753;49.196;8.286;2024-03-22T10:12:28;10.20;;;7.00;;
5460;SDS011;2753;49.196;8.286;2024-03-22T10:14:54;14.73;;;8.23;;
5460;SDS011;2753;49.196;8.286;2024-03-22T10:17:19;14.30;;;8.20;;
5460;SDS011;2753;49.196;8.286;2024-03-22T10:19:45;12.10;;;7.90;;
5460;SDS011;2753;49.196;8.286;2024-03-22T10:22:15;17.80;;;9.93;;
5460;SDS011;2753;49.196;8.286;2024-03-22T10:24:42;15.10;;;7.30;;
5460;SDS011;2753;49.196;8.286;2024-03-22T10:27:08;14.73;;;7.40;;
5460;SDS011;2753;49.196;8.286;2024-03-22T10:29:35;14.70;;;7.80;;
5460;SDS011;2753;49.196;8.286;2024-03-22T10:32:01;12.80;;;7.60;;
5460;SDS011;2753;49.196;8.286;2024-03-22T10:34:27;12.53;;;8.20;;
5460;SDS011;2753;49.196;8.286;2024-03-22T10:36:53;14.87;;;7.00;;
5460;SDS011;2753;49.196;8.286;2024-03-22T10:39:24;11.00;;;7.57;;
5460;SDS011;2753;49.196;8.286;2024-03-22T10:41:51;9.70;;;6.70;;
5460;SDS011;2753;49.196;8.286;2024-03-22T10:44:16;15.00;;;8.53;;
5460;SDS011;2753;49.196;8.286;2024-03-22T10:46:46;13.57;;;6.83;;
5460;SDS011;2753;49.196;8.286;2024-03-22T10:49:17;7.40;;;6.60;;
5460;SDS011;2753;49.196;8.286;2024-03-22T10:51:46;13.67;;;7.07;;
5460;SDS011;2753;49.196;8.286;2024-03-22T10:54:24;9.27;;;6.60;;
5460;SDS011;2753;49.196;8.286;2024-03-22T10:56:52;11.30;;;6.83;;
5460;SDS011;2753;49.196;8.286;2024-03-22T10:59:19;9.43;;;5.87;;
5460;SDS011;2753;49.196;8.286;2024-03-22T11:01:47;11.27;;;6.00;;
5460;SDS011;2753;49.196;8.286;2024-03-22T11:04:17;7.33;;;6.10;;
5460;SDS011;2753;49.196;8.286;2024-03-22T11:06:48;10.20;;;6.20;;
5460;SDS011;2753;49.196;8.286;2024-03-22T11:09:26;7.80;;;6.07;;
5460;SDS011;2753;49.196;8.286;2024-03-22T11:11:53;7.00;;;6.10;;
5460;SDS011;2753;49.196;8.286;2024-03-22T11:14:19;12.10;;;6.47;;
5460;SDS011;2753;49.196;8.286;2024-03-22T11:16:46;8.90;;;6.33;;
5460;SDS011;2753;49.196;8.286;2024-03-22T11:19:12;14.97;;;5.93;;
5460;SDS011;2753;49.196;8.286;2024-03-22T11:21:38;11.20;;;6.23;;
5460;SDS011;2753;49.196;8.286;2024-03-22T11:24:04;12.17;;;5.77;;
5460;SDS011;2753;49.196;8.286;2024-03-22T11:26:31;11.03;;;5.37;;
5460;SDS011;2753;49.196;8.286;2024-03-22T11:29:00;8.67;;;5.03;;
5460;SDS011;2753;49.196;8.286;2024-03-22T11:31:26;9.50;;;5.50;;
5460;SDS011;2753;49.196;8.286;2024-03-22T11:33:55;6.03;;;5.20;;
5460;SDS011;2753;49.196;8.286;2024-03-22T11:36:22;9.80;;;5.07;;
5460;SDS011;2753;49.196;8.286;2024-03-22T11:38:48;14.20;;;4.63;;
5460;SDS011;2753;49.196;8.286;2024-03-22T11:41:24;12.47;;;4.80;;
5460;SDS011;2753;49.196;8.286;2024-03-22T11:43:55;12.30;;;5.33;;
5460;SDS011;2753;49.196;8.286;2024-03-22T11:46:23;10.57;;;5.53;;
5460;SDS011;2753;49.196;8.286;2024-03-22T11:48:53;11.87;;;5.43;;
5460;SDS011;2753;49.196;8.286;2024-03-22T11:51:19;11.30;;;5.50;;
5460;SDS011;2753;49.196;8.286;2024-03-22T11:53:51;11.30;;;5.70;;
5460;SDS011;2753;49.196;8.286;2024-03-22T11:56:22;7.33;;;5.90;;
5460;SDS011;2753;49.196;8.286;2024-03-22T11:58:48;10.83;;;6.07;;
5460;SDS011;2753;49.196;8.286;2024-03-22T12:01:17;8.00;;;5.90;;
5460;SDS011;2753;49.196;8.286;2024-03-22T12:03:46;10.87;;;5.17;;
5460;SDS011;2753;49.196;8.286;2024-03-22T12:06:12;8.63;;;5.00;;
5460;SDS011;2753;49.196;8.286;2024-03-22T12:08:39;4.90;;;4.40;;
5460;SDS011;2753;49.196;8.286;2024-03-22T12:11:06;8.83;;;4.23;;
5460;SDS011;2753;49.196;8.286;2024-03-22T12:13:35;5.20;;;4.10;;
5460;SDS011;2753;49.196;8.286;2024-03-22T12:16:03;5.00;;;3.87;;
5460;SDS011;2753;49.196;8.286;2024-03-22T12:18:29;5.20;;;4.37;;
5460;SDS011;2753;49.196;8.286;2024-03-22T12:20:55;9.13;;;4.70;;
5460;SDS011;2753;49.196;8.286;2024-03-22T12:23:21;9.47;;;4.90;;
5460;SDS011;2753;49.196;8.286;2024-03-22T12:25:47;8.27;;;4.53;;
5460;SDS011;2753;49.196;8.286;2024-03-22T12:28:12;14.07;;;5.90;;
5460;SDS011;2753;49.196;8.286;2024-03-22T12:30:39;5.73;;;4.77;;
5460;SDS011;2753;49.196;8.286;2024-03-22T12:33:05;4.37;;;3.97;;
5460;SDS011;2753;49.196;8.286;2024-03-22T12:35:35;10.23;;;3.90;;
5460;SDS011;2753;49.196;8.286;2024-03-22T12:38:07;6.50;;;4.33;;
5460;SDS011;2753;49.196;8.286;2024-03-22T12:40:38;11.80;;;4.73;;
5460;SDS011;2753;49.196;8.286;2024-03-22T12:43:04;6.67;;;4.23;;
5460;SDS011;2753;49.196;8.286;2024-03-22T12:45:30;9.40;;;4.80;;
5460;SDS011;2753;49.196;8.286;2024-03-22T12:47:57;3.73;;;3.40;;
5460;SDS011;2753;49.196;8.286;2024-03-22T12:50:23;5.57;;;4.20;;
5460;SDS011;2753;49.196;8.286;2024-03-22T12:52:49;7.40;;;4.20;;
5460;SDS011;2753;49.196;8.286;2024-03-22T12:55:15;7.47;;;3.93;;
5460;SDS011;2753;49.196;8.286;2024-03-22T12:57:41;9.10;;;4.60;;
5460;SDS011;2753;49.196;8.286;2024-03-22T13:00:08;5.10;;;3.70;;
5460;SDS011;2753;49.196;8.286;2024-03-22T13:02:40;13.40;;;3.93;;
5460;SDS011;2753;49.196;8.286;2024-03-22T13:05:09;11.00;;;4.20;;
5460;SDS011;2753;49.196;8.286;2024-03-22T13:07:35;5.03;;;4.23;;
5460;SDS011;2753;49.196;8.286;2024-03-22T13:10:01;4.90;;;4.27;;
5460;SDS011;2753;49.196;8.286;2024-03-22T13:12:28;9.00;;;4.07;;
5460;SDS011;2753;49.196;8.286;2024-03-22T13:14:56;6.17;;;3.73;;
5460;SDS011;2753;49.196;8.286;2024-03-22T13:17:22;6.10;;;4.00;;
5460;SDS011;2753;49.196;8.286;2024-03-22T13:19:48;7.83;;;4.80;;
5460;SDS011;2753;49.196;8.286;2024-03-22T13:22:14;6.30;;;4.47;;
5460;SDS011;2753;49.196;8.286;2024-03-22T13:24:43;6.80;;;4.40;;
5460;SDS011;2753;49.196;8.286;2024-03-22T13:27:09;5.50;;;4.33;;
5460;SDS011;2753;49.196;8.286;2024-03-22T13:29:35;4.13;;;3.57;;
5460;SDS011;2753;49.196;8.286;2024-03-22T13:32:01;10.20;;;6.30;;
5460;SDS011;2753;49.196;8.286;2024-03-22T13:34:27;20.23;;;10.00;;
5460;SDS011;2753;49.196;8.286;2024-03-22T13:36:53;21.47;;;11.60;;
5460;SDS011;2753;49.196;8.286;2024-03-22T13:39:19;16.50;;;9.87;;
5460;SDS011;2753;49.196;8.286;2024-03-22T13:41:44;15.40;;;5.57;;
5460;SDS011;2753;49.196;8.286;2024-03-22T13:44:10;5.23;;;4.27;;
5460;SDS011;2753;49.196;8.286;2024-03-22T13:46:36;5.80;;;4.23;;
5460;SDS011;2753;49.196;8.286;2024-03-22T13:49:12;10.37;;;4.80;;
5460;SDS011;2753;49.196;8.286;2024-03-22T13:51:40;3.20;;;3.00;;
5460;SDS011;2753;49.196;8.286;2024-03-22T13:54:06;6.10;;;3.10;;
5460;SDS011;2753;49.196;8.286;2024-03-22T13:56:32;5.40;;;2.60;;
5460;SDS011;2753;49.196;8.286;2024-03-22T13:58:57;3.77;;;3.47;;
5460;SDS011;2753;49.196;8.286;2024-03-22T14:01:23;4.70;;;2.90;;
5460;SDS011;2753;49.196;8.286;2024-03-22T14:03:49;2.83;;;2.63;;
5460;SDS011;2753;49.196;8.286;2024-03-22T14:06:14;5.30;;;3.17;;
5460;SDS011;2753;49.196;8.286;2024-03-22T14:08:40;6.90;;;3.40;;
5460;SDS011;2753;49.196;8.286;2024-03-22T14:11:06;3.47;;;2.20;;
5460;SDS011;2753;49.196;8.286;2024-03-22T14:13:31;5.23;;;2.60;;
5460;SDS011;2753;49.196;8.286;2024-03-22T14:16:00;6.83;;;3.67;;
5460;SDS011;2753;49.196;8.286;2024-03-22T14:18:27;3.70;;;2.87;;
5460;SDS011;2753;49.196;8.286;2024-03-22T14:20:52;6.83;;;2.17;;
5460;SDS011;2753;49.196;8.286;2024-03-22T14:23:18;2.40;;;2.30;;
5460;SDS011;2753;49.196;8.286;2024-03-22T14:25:44;4.70;;;2.57;;
5460;SDS011;2753;49.196;8.286;2024-03-22T14:28:12;5.20;;;2.80;;
5460;SDS011;2753;49.196;8.286;2024-03-22T14:30:38;4.40;;;3.13;;
5460;SDS011;2753;49.196;8.286;2024-03-22T14:33:04;4.50;;;2.30;;
5460;SDS011;2753;49.196;8.286;2024-03-22T14:35:30;3.47;;;2.63;;
5460;SDS011;2753;49.196;8.286;2024-03-22T14:37:55;4.87;;;2.70;;
5460;SDS011;2753;49.196;8.286;2024-03-22T14:40:21;15.57;;;2.80;;
5460;SDS011;2753;49.196;8.286;2024-03-22T14:42:47;4.53;;;2.37;;
5460;SDS011;2753;49.196;8.286;2024-03-22T14:45:12;3.77;;;2.93;;
5460;SDS011;2753;49.196;8.286;2024-03-22T14:47:38;13.93;;;3.37;;
5460;SDS011;2753;49.196;8.286;2024-03-22T14:50:04;7.00;;;2.90;;
5460;SDS011;2753;49.196;8.286;2024-03-22T14:52:31;4.33;;;2.57;;
5460;SDS011;2753;49.196;8.286;2024-03-22T14:54:56;5.93;;;2.20;;
5460;SDS011;2753;49.196;8.286;2024-03-22T14:57:22;4.20;;;2.57;;
5460;SDS011;2753;49.196;8.286;2024-03-22T14:59:48;5.43;;;2.50;;